createdAt,value
2018-05-18T00:01:15.120Z,11.10
2018-05-18T00:03:41.438Z,11.10
2018-05-18T00:06:08.911Z,11.10
2018-05-18T00:08:35.641Z,11.10
2018-05-18T00:11:02.348Z,11.10
2018-05-18T00:13:30.686Z,11.10
2018-05-18T00:15:57.222Z,11.10
2018-05-18T00:18:25.880Z,11.20
2018-05-18T00:20:52.453Z,11.10
2018-05-18T00:23:19.067Z,11.10
2018-05-18T00:25:45.539Z,11.20
2018-05-18T00:28:12.046Z,11.20
2018-05-18T00:30:38.313Z,11.20
2018-05-18T00:33:04.684Z,11.20
2018-05-18T00:35:31.131Z,11.20
2018-05-18T00:37:57.526Z,11.20
2018-05-18T00:40:24.439Z,11.20
2018-05-18T00:42:50.875Z,11.20
2018-05-18T00:45:17.254Z,11.20
2018-05-18T00:47:43.670Z,11.20
2018-05-18T00:50:09.983Z,11.10
2018-05-18T00:52:36.330Z,11.10
2018-05-18T00:55:03.734Z,11.00
2018-05-18T00:57:31.165Z,11.00
2018-05-18T00:59:58.994Z,11.00
2018-05-18T01:02:25.311Z,10.90
2018-05-18T01:04:51.564Z,10.90
2018-05-18T01:07:18.104Z,10.70
2018-05-18T01:09:44.680Z,10.80
2018-05-18T01:12:11.211Z,10.80
2018-05-18T01:14:39.572Z,10.70
2018-05-18T01:17:06.136Z,10.70
2018-05-18T01:19:33.955Z,10.60
2018-05-18T01:22:01.106Z,10.60
2018-05-18T01:24:27.728Z,10.70
2018-05-18T01:27:00.081Z,10.60
2018-05-18T01:29:27.073Z,10.60
2018-05-18T01:31:53.895Z,10.50
2018-05-18T01:34:20.380Z,10.40
2018-05-18T01:36:46.782Z,10.40
2018-05-18T01:39:13.547Z,10.40
2018-05-18T01:41:40.035Z,10.40
2018-05-18T01:44:06.457Z,10.40
2018-05-18T01:46:32.867Z,10.30
2018-05-18T01:48:59.259Z,10.30
2018-05-18T01:51:26.179Z,10.30
2018-05-18T01:53:52.643Z,10.20
2018-05-18T01:56:19.294Z,10.10
2018-05-18T01:58:45.631Z,10.00
2018-05-18T02:01:12.621Z,10.00
2018-05-18T02:03:39.532Z,10.00
2018-05-18T02:06:06.020Z,10.00
2018-05-18T02:08:32.420Z,9.90
2018-05-18T02:10:59.074Z,9.80
2018-05-18T02:13:25.382Z,9.70
2018-05-18T02:15:51.642Z,9.50
2018-05-18T02:18:17.906Z,9.50
2018-05-18T02:20:44.244Z,9.40
2018-05-18T02:23:10.572Z,9.50
2018-05-18T02:25:36.840Z,9.40
2018-05-18T02:28:04.098Z,9.40
2018-05-18T02:30:30.483Z,9.50
2018-05-18T02:32:56.789Z,9.60
2018-05-18T02:35:23.155Z,9.30
2018-05-18T02:37:49.448Z,9.30
2018-05-18T02:40:16.948Z,9.30
2018-05-18T02:42:43.252Z,9.30
2018-05-18T02:45:09.591Z,9.40
2018-05-18T02:47:36.016Z,9.40
2018-05-18T02:50:02.586Z,9.30
2018-05-18T02:52:29.237Z,9.20
2018-05-18T02:54:56.461Z,9.10
2018-05-18T02:57:23.075Z,9.10
2018-05-18T02:59:49.543Z,9.10
2018-05-18T03:02:16.275Z,9.20
2018-05-18T03:04:42.650Z,9.20
2018-05-18T03:07:08.908Z,9.10
2018-05-18T03:09:35.187Z,8.80
2018-05-18T03:12:01.701Z,8.80
2018-05-18T03:14:28.039Z,8.80
2018-05-18T03:17:02.516Z,8.80
2018-05-18T03:19:28.904Z,8.70
2018-05-18T03:21:55.440Z,8.70
2018-05-18T03:24:21.884Z,8.60
2018-05-18T03:26:49.278Z,8.70
2018-05-18T03:29:15.507Z,8.60
2018-05-18T03:31:41.815Z,8.60
2018-05-18T03:34:11.105Z,8.50
2018-05-18T03:36:37.423Z,8.50
2018-05-18T03:39:03.691Z,8.40
2018-05-18T03:41:30.134Z,8.40
2018-05-18T03:43:56.657Z,8.50
2018-05-18T03:46:23.988Z,8.40
2018-05-18T03:48:50.267Z,8.30
2018-05-18T03:51:16.495Z,8.30
2018-05-18T03:53:42.790Z,8.40
2018-05-18T03:56:09.403Z,8.30
2018-05-18T03:58:35.692Z,8.40
2018-05-18T04:01:02.703Z,8.30
2018-05-18T04:03:41.323Z,8.20
2018-05-18T04:06:19.681Z,8.30
2018-05-18T04:08:52.983Z,8.40
2018-05-18T04:11:19.437Z,8.40
2018-05-18T04:13:45.777Z,8.50
2018-05-18T04:16:27.044Z,8.50
2018-05-18T04:18:58.763Z,8.60
2018-05-18T04:21:25.137Z,8.50
2018-05-18T04:23:52.590Z,8.60
2018-05-18T04:26:22.784Z,8.70
2018-05-18T04:28:49.055Z,8.70
2018-05-18T04:31:18.312Z,8.80
2018-05-18T04:33:44.748Z,8.80
2018-05-18T04:36:11.252Z,8.90
2018-05-18T04:38:38.426Z,9.00
2018-05-18T04:41:06.806Z,9.10
2018-05-18T04:43:33.280Z,9.10
2018-05-18T04:45:59.769Z,9.00
2018-05-18T04:48:26.100Z,9.10
2018-05-18T04:50:52.606Z,9.20
2018-05-18T04:53:19.743Z,9.30
2018-05-18T04:55:46.200Z,9.20
2018-05-18T04:58:12.553Z,9.20
2018-05-18T05:00:40.522Z,9.30
2018-05-18T05:03:07.282Z,9.40
2018-05-18T05:05:33.661Z,9.50
2018-05-18T05:08:00.239Z,9.60
2018-05-18T05:10:27.827Z,9.70
2018-05-18T05:12:56.987Z,9.80
2018-05-18T05:15:24.794Z,9.90
2018-05-18T05:17:51.504Z,9.90
2018-05-18T05:20:19.470Z,10.10
2018-05-18T05:22:50.749Z,10.10
2018-05-18T05:25:17.445Z,10.20
2018-05-18T05:27:46.306Z,10.20
2018-05-18T05:30:13.904Z,10.30
2018-05-18T05:32:41.529Z,10.40
2018-05-18T05:35:08.123Z,10.40
2018-05-18T05:37:35.366Z,10.40
2018-05-18T05:40:05.901Z,10.30
2018-05-18T05:42:56.998Z,10.30
2018-05-18T05:45:25.261Z,10.50
2018-05-18T05:47:51.588Z,10.50
2018-05-18T05:50:27.226Z,10.60
2018-05-18T05:52:54.444Z,10.60
2018-05-18T05:55:21.066Z,10.60
2018-05-18T05:57:48.541Z,10.70
2018-05-18T06:00:16.273Z,10.90
2018-05-18T06:02:43.852Z,10.90
2018-05-18T06:05:18.731Z,11.00
2018-05-18T06:07:47.265Z,11.00
2018-05-18T06:10:18.077Z,11.30
2018-05-18T06:12:53.315Z,11.30
2018-05-18T06:15:25.815Z,11.40
2018-05-18T06:17:58.181Z,11.60
2018-05-18T06:20:32.295Z,11.70
2018-05-18T06:22:59.675Z,11.80
2018-05-18T06:25:27.700Z,11.90
2018-05-18T06:27:55.598Z,12.10
2018-05-18T06:30:22.187Z,12.10
2018-05-18T06:32:50.732Z,12.20
2018-05-18T06:35:27.777Z,12.30
2018-05-18T06:37:58.055Z,12.30
2018-05-18T06:40:30.981Z,12.40
2018-05-18T06:43:03.241Z,12.40
2018-05-18T06:45:29.865Z,12.50
2018-05-18T06:48:22.160Z,12.60
2018-05-18T06:53:51.738Z,12.70
2018-05-18T06:56:26.788Z,12.90
2018-05-18T06:59:01.004Z,12.90
2018-05-18T07:01:29.596Z,12.90
2018-05-18T07:03:56.230Z,13.00
2018-05-18T07:06:27.152Z,13.00
2018-05-18T07:08:54.310Z,13.10
2018-05-18T07:11:21.416Z,13.20
2018-05-18T07:13:50.371Z,13.30
2018-05-18T07:16:23.305Z,13.30
2018-05-18T07:24:57.867Z,13.40
2018-05-18T07:27:24.391Z,13.50
2018-05-18T07:35:57.519Z,13.60
2018-05-18T07:38:27.909Z,13.60
2018-05-18T07:50:05.558Z,13.70
2018-05-18T07:58:58.318Z,13.80
2018-05-18T08:04:28.943Z,13.80
2018-05-18T08:09:58.657Z,14.00
2018-05-18T08:12:27.212Z,14.00
2018-05-18T08:14:54.068Z,14.00
2018-05-18T08:17:20.454Z,14.10
2018-05-18T08:19:48.268Z,14.10
2018-05-18T08:22:26.772Z,14.20
2018-05-18T08:24:59.548Z,14.20
2018-05-18T08:30:49.713Z,14.20
2018-05-18T08:33:29.143Z,14.50
2018-05-18T08:35:59.254Z,14.60
2018-05-18T08:38:29.477Z,14.70
2018-05-18T08:41:02.495Z,14.70
2018-05-18T08:43:29.048Z,14.60
2018-05-18T08:45:59.070Z,14.70
2018-05-18T08:48:25.329Z,14.60
2018-05-18T08:50:51.777Z,14.80
2018-05-18T08:53:18.173Z,14.80
2018-05-18T08:55:46.517Z,14.90
2018-05-18T08:58:12.865Z,15.10
2018-05-18T09:03:28.709Z,15.30
2018-05-18T09:08:59.964Z,15.20
2018-05-18T09:11:28.175Z,15.20
2018-05-18T09:13:54.561Z,15.40
2018-05-18T09:16:20.847Z,15.40
2018-05-18T09:18:47.500Z,15.50
2018-05-18T09:21:15.158Z,15.60
2018-05-18T09:23:42.590Z,15.40
2018-05-18T09:26:09.278Z,15.40
2018-05-18T09:28:35.744Z,15.50
2018-05-18T09:31:02.217Z,15.60
2018-05-18T09:33:28.880Z,15.90
2018-05-18T09:35:55.278Z,15.80
2018-05-18T09:38:22.673Z,15.50
2018-05-18T09:40:49.121Z,15.70
2018-05-18T09:43:28.343Z,15.70
2018-05-18T09:45:54.794Z,15.80
2018-05-18T09:48:24.339Z,16.00
2018-05-18T09:50:54.023Z,15.80
2018-05-18T09:53:21.139Z,15.80
2018-05-18T09:55:47.761Z,15.70
2018-05-18T09:58:14.408Z,15.80
2018-05-18T10:00:41.263Z,14.70
2018-05-18T10:03:08.155Z,14.70
2018-05-18T10:05:34.585Z,15.10
2018-05-18T10:08:01.422Z,15.40
2018-05-18T10:10:27.741Z,15.40
2018-05-18T10:12:54.052Z,15.60
2018-05-18T10:15:20.478Z,15.70
2018-05-18T10:17:47.152Z,15.80
2018-05-18T10:20:13.657Z,15.90
2018-05-18T10:22:41.625Z,16.00
2018-05-18T10:25:07.920Z,16.00
2018-05-18T10:27:34.297Z,16.10
2018-05-18T10:30:00.718Z,16.00
2018-05-18T10:32:27.360Z,16.00
2018-05-18T10:34:54.378Z,16.00
2018-05-18T10:37:21.347Z,15.70
2018-05-18T10:39:47.748Z,15.20
2018-05-18T10:42:14.501Z,15.50
2018-05-18T10:44:40.994Z,15.80
2018-05-18T10:47:07.449Z,16.20
2018-05-18T10:49:33.912Z,16.40
2018-05-18T10:52:00.316Z,16.50
2018-05-18T10:54:26.731Z,16.70
2018-05-18T10:56:53.217Z,16.30
2018-05-18T10:59:19.527Z,16.60
2018-05-18T11:01:46.845Z,16.30
2018-05-18T11:04:14.129Z,16.80
2018-05-18T11:06:40.558Z,17.30
2018-05-18T11:09:06.868Z,17.20
2018-05-18T11:11:33.687Z,17.20
2018-05-18T11:14:00.288Z,17.10
2018-05-18T11:16:28.057Z,17.30
2018-05-18T11:18:54.512Z,17.50
2018-05-18T11:21:22.270Z,17.60
2018-05-18T11:23:49.405Z,17.70
2018-05-18T11:26:15.799Z,17.40
2018-05-18T11:28:48.043Z,17.70
2018-05-18T11:31:15.149Z,17.90
2018-05-18T11:33:46.126Z,17.90
2018-05-18T11:36:12.670Z,17.70
2018-05-18T11:38:39.405Z,17.90
2018-05-18T11:41:06.882Z,17.90
2018-05-18T11:43:33.293Z,17.90
2018-05-18T11:45:59.611Z,18.00
2018-05-18T11:48:26.840Z,17.90
2018-05-18T11:50:53.340Z,17.80
2018-05-18T11:53:19.893Z,17.80
2018-05-18T11:55:46.185Z,17.90
2018-05-18T11:58:16.408Z,18.10
2018-05-18T12:00:45.563Z,18.10
2018-05-18T12:03:14.601Z,17.90
2018-05-18T12:05:42.175Z,18.00
2018-05-18T12:08:11.205Z,18.10
2018-05-18T12:10:38.719Z,17.90
2018-05-18T12:13:05.835Z,17.90
2018-05-18T12:15:32.741Z,17.90
2018-05-18T12:18:00.478Z,18.10
2018-05-18T12:20:26.974Z,18.20
2018-05-18T12:22:54.864Z,18.20
2018-05-18T12:25:21.995Z,18.30
2018-05-18T12:27:49.124Z,17.70
2018-05-18T12:30:15.511Z,17.60
2018-05-18T12:32:46.371Z,17.90
2018-05-18T12:35:15.693Z,16.80
2018-05-18T12:37:43.649Z,16.70
2018-05-18T12:40:09.898Z,17.10
2018-05-18T12:42:45.549Z,17.70
2018-05-18T12:45:14.821Z,18.30
2018-05-18T12:47:42.601Z,18.30
2018-05-18T12:52:44.148Z,18.20
2018-05-18T12:55:16.846Z,18.40
2018-05-18T12:57:46.856Z,18.30
2018-05-18T13:00:13.464Z,18.30
2018-05-18T13:02:39.854Z,18.20
2018-05-18T13:05:06.123Z,18.20
2018-05-18T13:07:33.491Z,18.20
2018-05-18T13:10:00.089Z,18.20
2018-05-18T13:12:26.559Z,18.40
2018-05-18T13:14:53.012Z,18.50
2018-05-18T13:17:23.999Z,19.00
2018-05-18T13:19:57.906Z,19.00
2018-05-18T13:22:24.175Z,17.90
2018-05-18T13:24:57.801Z,18.40
2018-05-18T13:27:28.384Z,18.20
2018-05-18T13:29:55.916Z,18.10
2018-05-18T13:32:22.675Z,18.60
2018-05-18T13:34:58.262Z,18.80
2018-05-18T13:37:29.074Z,17.70
2018-05-18T13:45:26.937Z,18.90
2018-05-18T13:47:58.591Z,18.10
2018-05-18T13:50:27.499Z,17.90
2018-05-18T13:52:57.401Z,18.10
2018-05-18T13:55:27.417Z,18.30
2018-05-18T13:57:57.069Z,18.40
2018-05-18T14:00:28.314Z,18.50
2018-05-18T14:02:57.462Z,17.90
2018-05-18T14:05:29.770Z,17.30
2018-05-18T14:07:58.510Z,17.40
2018-05-18T14:10:28.638Z,17.40
2018-05-18T14:12:56.982Z,17.50
2018-05-18T14:15:26.984Z,17.60
2018-05-18T14:17:57.997Z,17.40
2018-05-18T14:20:28.718Z,16.30
2018-05-18T14:23:00.086Z,16.20
2018-05-18T14:25:28.483Z,16.30
2018-05-18T14:27:59.095Z,16.40
2018-05-18T14:30:26.715Z,16.50
2018-05-18T14:32:55.917Z,16.10
2018-05-18T14:35:30.174Z,16.20
2018-05-18T14:37:59.262Z,16.20
2018-05-18T14:40:27.438Z,16.30
2018-05-18T14:42:59.784Z,16.30
2018-05-18T14:48:30.869Z,15.80
2018-05-18T14:50:58.008Z,15.70
2018-05-18T14:53:28.000Z,15.70
2018-05-18T14:55:54.826Z,15.80
2018-05-18T14:58:28.633Z,15.70
2018-05-18T15:00:59.530Z,15.80
2018-05-18T15:03:29.462Z,15.80
2018-05-18T15:08:44.200Z,15.20
2018-05-18T15:11:18.440Z,15.60
2018-05-18T15:13:46.282Z,15.60
2018-05-18T15:16:17.049Z,15.70
2018-05-18T15:18:47.610Z,15.40
2018-05-18T15:24:17.548Z,15.40
2018-05-18T15:26:45.658Z,15.30
2018-05-18T15:29:14.352Z,15.40
2018-05-18T15:31:47.588Z,15.10
2018-05-18T15:34:16.679Z,15.20
2018-05-18T15:36:43.431Z,15.40
2018-05-18T15:39:11.785Z,15.40
2018-05-18T15:41:47.024Z,15.20
2018-05-18T15:44:17.181Z,15.20
2018-05-18T15:46:47.344Z,15.50
2018-05-18T15:49:18.003Z,15.30
2018-05-18T15:51:48.233Z,14.80
2018-05-18T15:54:16.141Z,15.00
2018-05-18T16:02:47.133Z,15.10
2018-05-18T16:05:16.620Z,15.20
2018-05-18T16:19:57.631Z,14.60
2018-05-18T16:22:31.687Z,14.70
2018-05-18T16:24:58.736Z,14.90
2018-05-18T16:27:28.199Z,15.00
2018-05-18T16:29:58.296Z,15.10
2018-05-18T16:32:27.454Z,15.10
2018-05-18T16:34:57.988Z,14.90
2018-05-18T16:37:25.920Z,14.80
2018-05-18T16:40:00.495Z,14.80
2018-05-18T16:42:35.976Z,14.70
2018-05-18T16:45:03.031Z,14.90
2018-05-18T16:47:30.022Z,15.00
2018-05-18T16:50:01.394Z,15.00
2018-05-18T16:52:27.939Z,15.00
2018-05-18T16:54:56.174Z,14.90
2018-05-18T16:57:27.729Z,14.90
2018-05-18T17:00:02.145Z,14.80
2018-05-18T17:02:29.091Z,14.80
2018-05-18T17:04:58.162Z,14.80
2018-05-18T17:07:25.110Z,14.60
2018-05-18T17:09:58.654Z,14.60
2018-05-18T17:12:27.967Z,14.40
2018-05-18T17:14:58.340Z,14.40
2018-05-18T17:17:29.961Z,14.20
2018-05-18T17:19:58.683Z,14.40
2018-05-18T17:28:34.470Z,14.60
2018-05-18T17:31:01.008Z,14.50
2018-05-18T17:33:29.093Z,14.50
2018-05-18T17:35:59.723Z,14.60
2018-05-18T17:41:00.919Z,14.30
2018-05-18T17:46:31.847Z,14.50
2018-05-18T17:48:58.818Z,14.50
2018-05-18T17:51:29.388Z,14.50
2018-05-18T17:53:59.368Z,14.60
2018-05-18T17:56:27.950Z,14.30
2018-05-18T17:58:56.531Z,14.30
2018-05-18T18:01:27.195Z,14.30
2018-05-18T18:03:53.946Z,14.20
2018-05-18T18:06:21.022Z,14.20
2018-05-18T18:08:47.809Z,14.10
2018-05-18T18:11:15.155Z,14.20
2018-05-18T18:13:45.415Z,14.10
2018-05-18T18:16:13.694Z,14.10
2018-05-18T18:18:40.252Z,14.10
2018-05-18T18:21:06.920Z,14.00
2018-05-18T18:23:33.394Z,14.00
2018-05-18T18:25:59.730Z,14.10
2018-05-18T18:28:26.201Z,14.10
2018-05-18T18:30:53.412Z,13.90
2018-05-18T18:33:23.206Z,13.90
2018-05-18T18:35:49.533Z,13.90
2018-05-18T18:38:16.887Z,13.90
2018-05-18T18:40:43.263Z,13.80
2018-05-18T18:43:12.297Z,13.80
2018-05-18T18:45:38.568Z,13.70
2018-05-18T18:48:04.895Z,13.70
2018-05-18T18:50:31.175Z,13.60
2018-05-18T18:52:57.737Z,13.50
2018-05-18T18:55:24.200Z,13.50
2018-05-18T18:57:50.493Z,13.50
2018-05-18T19:00:18.714Z,13.50
2018-05-18T19:02:45.130Z,13.40
2018-05-18T19:05:11.434Z,13.30
2018-05-18T19:07:38.537Z,13.30
2018-05-18T19:10:05.052Z,13.20
2018-05-18T19:12:31.652Z,13.20
2018-05-18T19:15:00.746Z,13.20
2018-05-18T19:17:28.023Z,13.10
2018-05-18T19:19:56.670Z,13.10
2018-05-18T19:22:23.759Z,12.80
2018-05-18T19:24:49.957Z,12.80
2018-05-18T19:27:16.512Z,12.70
2018-05-18T19:29:42.811Z,12.70
2018-05-18T19:32:09.723Z,12.50
2018-05-18T19:34:35.958Z,12.40
2018-05-18T19:37:02.315Z,12.50
2018-05-18T19:39:28.625Z,12.40
2018-05-18T19:41:54.848Z,12.40
2018-05-18T19:44:21.092Z,12.40
2018-05-18T19:46:47.453Z,12.40
2018-05-18T19:49:13.683Z,12.20
2018-05-18T19:51:39.907Z,12.20
2018-05-18T19:54:06.137Z,12.20
2018-05-18T19:56:32.602Z,12.30
2018-05-18T19:58:59.308Z,12.30
2018-05-18T20:01:25.516Z,12.20
2018-05-18T20:03:58.805Z,12.00
2018-05-18T20:06:28.528Z,12.00
2018-05-18T20:08:55.108Z,11.80
2018-05-18T20:11:28.435Z,11.80
2018-05-18T20:13:58.276Z,11.80
2018-05-18T20:16:28.771Z,11.90
2018-05-18T20:18:59.240Z,11.90
2018-05-18T20:21:29.444Z,11.80
2018-05-18T20:23:57.797Z,11.60
2018-05-18T20:26:27.695Z,11.60
2018-05-18T20:28:57.724Z,11.60
2018-05-18T20:31:30.560Z,11.70
2018-05-18T20:33:57.746Z,11.60
2018-05-18T20:36:29.273Z,11.70
2018-05-18T20:38:58.637Z,11.60
2018-05-18T20:41:27.893Z,11.50
2018-05-18T20:43:58.013Z,11.50
2018-05-18T20:46:30.422Z,11.50
2018-05-18T20:48:58.250Z,11.30
2018-05-18T20:51:29.249Z,11.30
2018-05-18T20:53:59.668Z,11.30
2018-05-18T20:56:29.932Z,11.20
2018-05-18T20:58:58.317Z,11.20
2018-05-18T21:01:28.449Z,11.10
2018-05-18T21:03:57.074Z,11.10
2018-05-18T21:06:26.006Z,11.00
2018-05-18T21:08:52.358Z,11.00
2018-05-18T21:11:22.300Z,10.80
2018-05-18T21:13:57.920Z,10.90
2018-05-18T21:16:25.106Z,10.90
2018-05-18T21:18:54.722Z,10.90
2018-05-18T21:21:27.655Z,10.90
2018-05-18T21:26:57.346Z,10.90
2018-05-18T21:29:25.342Z,10.60
2018-05-18T21:31:51.761Z,10.60
2018-05-18T21:34:18.184Z,10.70
2018-05-18T21:36:54.425Z,10.60
2018-05-18T21:39:20.869Z,10.60
2018-05-18T21:41:52.638Z,10.60
2018-05-18T21:44:27.722Z,10.60
2018-05-18T21:47:00.203Z,10.50
2018-05-18T21:49:27.144Z,10.40
2018-05-18T21:51:57.318Z,10.30
2018-05-18T21:54:26.577Z,10.40
2018-05-18T21:56:57.855Z,10.30
2018-05-18T21:59:27.934Z,10.20
2018-05-18T22:01:54.707Z,10.20
2018-05-18T22:04:23.888Z,10.20
2018-05-18T22:06:53.170Z,10.20
2018-05-18T22:09:19.921Z,10.20
2018-05-18T22:11:46.508Z,10.10
2018-05-18T22:14:13.911Z,10.20
2018-05-18T22:16:40.230Z,10.20
2018-05-18T22:19:06.974Z,10.20
2018-05-18T22:21:33.321Z,10.20
2018-05-18T22:23:59.655Z,10.20
2018-05-18T22:26:26.090Z,10.20
2018-05-18T22:28:52.486Z,10.20
2018-05-18T22:31:19.015Z,10.00
2018-05-18T22:33:45.340Z,9.90
2018-05-18T22:36:11.597Z,9.90
2018-05-18T22:38:37.808Z,9.80
2018-05-18T22:41:04.087Z,9.80
2018-05-18T22:43:30.555Z,9.70
2018-05-18T22:45:57.007Z,9.70
2018-05-18T22:48:23.297Z,9.80
2018-05-18T22:50:49.546Z,9.90
2018-05-18T22:53:15.886Z,9.90
2018-05-18T22:55:43.420Z,9.80
2018-05-18T22:58:09.996Z,9.80
2018-05-18T23:00:38.206Z,9.90
2018-05-18T23:03:04.555Z,9.90
2018-05-18T23:05:30.899Z,9.80
2018-05-18T23:07:57.183Z,9.80
2018-05-18T23:10:23.465Z,9.70
2018-05-18T23:12:49.777Z,9.70
2018-05-18T23:15:16.007Z,9.60
2018-05-18T23:17:43.331Z,9.60
2018-05-18T23:20:09.616Z,9.70
2018-05-18T23:22:35.979Z,9.70
2018-05-18T23:25:02.998Z,9.70
2018-05-18T23:27:29.535Z,9.70
2018-05-18T23:29:55.750Z,9.70
2018-05-18T23:32:22.038Z,9.70
2018-05-18T23:34:48.422Z,9.60
2018-05-18T23:37:14.686Z,9.60
2018-05-18T23:39:40.959Z,9.60
2018-05-18T23:42:07.380Z,9.50
2018-05-18T23:44:33.675Z,9.40
2018-05-18T23:47:00.036Z,9.50
2018-05-18T23:49:26.326Z,9.50
2018-05-18T23:51:52.672Z,9.50
2018-05-18T23:54:19.075Z,9.50
2018-05-18T23:56:45.304Z,9.50
2018-05-18T23:59:11.626Z,9.50
